Terminal Aerodrome Forecast
Issued by NWS

Home | Current Version | Previous Version | Text Only | Print | Product List | Glossary On
Versions: 1 2 3 4 5 6 7 8 9 10 11 12 13 14 15 16
000
FTUS45 KCYS 221731
TAFLAR
TAF
KLAR 221731Z 2218/2318 09012G22KT P6SM SCT060
     FM222000 13015G25KT P6SM VCTS SCT060CB BKN100
     FM222200 14014G25KT P6SM -TSRA BKN050CB
      TEMPO 2222/2302 3SM TSRAGR OVC040CB
     FM230400 18010KT P6SM BKN100=

USA.gov is the U.S. government's official web portal to all federal, state and local government web resources and services.